Time;durP1;ratioP1;P1;durP2;ratioP2;P2;SDS_P1;SDS_P2;PMS_P1;PMS_P2;Temp;Humidity;BMP_temperature;BMP_pressure;BME280_temperature;BME280_humidity;BME280_pressure;Samples;Min_cycle;Max_cycle;Signal;HPM_P1;HPM_P2
2022/06/12 00:00:35;;;;;;;6.38;2.97;;;18.60;99.90;;;17.56;69.94;97889.06;5093121;28;20402;-82
2022/06/12 00:03:06;;;;;;;5.05;2.88;;;18.60;99.90;;;17.54;69.86;97893.88;5075616;28;20410;-81
2022/06/12 00:05:37;;;;;;;7.47;3.00;;;18.50;99.90;;;17.53;69.91;97894.16;5091656;28;20406;-82
2022/06/12 00:08:05;;;;;;;3.53;2.67;;;18.50;99.90;;;17.50;69.99;97890.19;5063246;28;20514;-82
2022/06/12 00:10:32;;;;;;;6.03;3.05;;;18.50;99.90;;;17.49;70.37;97893.16;5080344;28;20483;-82
2022/06/12 00:12:58;;;;;;;7.07;3.17;;;18.50;99.90;;;17.48;70.05;97886.19;5064371;28;20408;-82
2022/06/12 00:15:29;;;;;;;5.70;2.63;;;18.50;99.90;;;17.44;70.44;97890.53;5081677;28;20880;-82
2022/06/12 00:17:56;;;;;;;4.95;3.17;;;18.40;99.90;;;17.40;70.54;97888.41;5081849;28;20392;-82
2022/06/12 00:20:24;;;;;;;4.95;2.80;;;18.40;99.90;;;17.38;70.52;97890.56;5092657;28;20398;-82
2022/06/12 00:22:51;;;;;;;4.10;2.88;;;18.40;99.90;;;17.37;70.44;97891.63;5092495;28;20390;-83
2022/06/12 00:25:18;;;;;;;3.80;2.70;;;18.40;99.90;;;17.35;70.82;97887.66;5089060;28;20457;-83
2022/06/12 00:27:45;;;;;;;3.88;2.80;;;18.30;99.90;;;17.30;70.75;97885.00;5082436;28;20418;-82
2022/06/12 00:30:16;;;;;;;6.87;2.80;;;18.30;99.90;;;17.27;70.92;97890.94;5093207;28;20437;-82
2022/06/12 00:32:46;;;;;;;3.30;2.55;;;18.30;99.90;;;17.25;71.33;97890.41;5092703;28;20395;-83
2022/06/12 00:35:12;;;;;;;5.17;2.90;;;18.30;99.90;;;17.22;71.34;97882.94;5092603;28;20485;-83
2022/06/12 00:37:39;;;;;;;4.13;2.70;;;18.20;99.90;;;17.20;71.12;97885.94;5092887;28;20418;-83
2022/06/12 00:40:07;;;;;;;3.67;2.80;;;18.20;99.90;;;17.18;71.19;97887.28;5091679;28;20401;-83
2022/06/12 00:42:37;;;;;;;4.75;3.05;;;18.20;99.90;;;17.15;71.28;97875.25;5092343;28;20409;-83
2022/06/12 00:45:41;;;;;;;6.05;3.00;;;18.20;99.90;;;17.09;71.27;97876.38;5092194;28;20476;-83
2022/06/12 00:48:11;;;;;;;6.32;2.97;;;18.10;99.90;;;17.07;71.22;97883.06;5092506;28;20972;-84
2022/06/12 00:50:43;;;;;;;5.85;3.10;;;18.10;99.90;;;17.06;71.01;97887.66;5092410;28;20406;-84
2022/06/12 00:53:17;;;;;;;3.95;2.67;;;18.10;99.90;;;17.00;71.66;97883.41;5073898;28;20911;-83
2022/06/12 00:55:51;;;;;;;8.55;2.83;;;18.00;99.90;;;17.00;71.32;97883.41;5085119;28;20894;-84
2022/06/12 00:58:23;;;;;;;5.05;3.17;;;18.00;99.90;;;16.95;71.42;97883.44;5080542;28;20396;-83
2022/06/12 01:00:50;;;;;;;7.72;3.10;;;18.00;99.90;;;16.93;71.54;97889.06;5082717;28;20395;-84
2022/06/12 01:03:17;;;;;;;4.05;3.08;;;18.00;99.90;;;16.90;71.64;97878.94;5095083;28;20389;-84
2022/06/12 01:08:32;;;;;;;5.03;2.60;;;17.90;99.90;;;16.84;72.45;97881.94;5086515;28;20580;-84
2022/06/12 01:11:04;;;;;;;4.95;2.70;;;17.90;99.90;;;16.80;72.48;97873.66;5091282;28;20397;-84
2022/06/12 01:13:36;;;;;;;3.50;2.72;;;17.80;99.90;;;16.79;72.64;97877.41;5074801;28;20907;-84
2022/06/12 01:16:08;;;;;;;6.47;3.08;;;17.80;99.90;;;16.78;72.49;97875.00;5069107;28;20769;-84
2022/06/12 01:18:41;;;;;;;5.10;2.55;;;17.80;99.90;;;16.76;72.64;97874.53;5083373;28;20489;-85
2022/06/12 01:21:33;;;;;;;4.80;2.80;;;17.80;99.90;;;16.74;72.60;97876.66;5092527;28;20398;-85
2022/06/12 01:24:23;;;;;;;3.92;2.78;;;17.80;99.90;;;16.71;72.64;97878.00;5065762;28;20743;-85
2022/06/12 01:27:39;;;;;;;4.38;3.00;;;17.70;99.90;;;16.67;73.20;97870.84;5088720;28;20404;-84
2022/06/12 01:30:14;;;;;;;6.20;3.30;;;17.70;99.90;;;16.65;73.43;97865.75;5080396;28;20873;-85
2022/06/12 01:33:02;;;;;;;3.88;2.67;;;17.70;99.90;;;16.63;73.10;97874.06;5086069;28;20401;-85
2022/06/12 01:35:44;;;;;;;9.00;3.78;;;17.70;99.90;;;16.62;73.05;97864.44;5053327;28;20936;-85
2022/06/12 01:38:18;;;;;;;4.00;2.67;;;17.70;99.90;;;16.58;73.47;97868.72;5057731;28;20891;-85
2022/06/12 01:40:56;;;;;;;6.10;3.08;;;17.60;99.90;;;16.56;73.73;97870.88;5039888;28;20507;-85
2022/06/12 01:43:38;;;;;;;5.05;3.00;;;17.60;99.90;;;16.59;73.92;97875.66;5082350;28;20880;-85
2022/06/12 01:46:12;;;;;;;5.97;3.20;;;17.60;99.90;;;16.54;73.76;97866.84;5089935;28;20405;-85
2022/06/12 01:48:54;;;;;;;8.02;2.83;;;17.60;99.90;;;16.55;73.41;97871.13;5070185;28;20944;-85
2022/06/12 01:51:29;;;;;;;5.70;2.90;;;17.60;99.90;;;16.51;73.22;97864.75;5062141;28;20461;-85
2022/06/12 01:54:01;;;;;;;5.32;2.95;;;17.50;99.90;;;16.47;72.99;97877.84;5085235;28;20422;-85
2022/06/12 01:56:40;;;;;;;4.80;3.00;;;17.50;99.90;;;16.41;73.78;97868.28;5065364;28;20400;-85
2022/06/12 01:59:13;;;;;;;5.65;3.00;;;17.40;99.90;;;16.39;73.48;97864.31;5056670;28;20403;-85
2022/06/12 02:01:48;;;;;;;6.55;3.10;;;17.50;99.90;;;16.35;73.83;97866.72;5063631;28;20885;-84
2022/06/12 02:04:20;;;;;;;5.77;3.03;;;17.40;99.90;;;16.31;73.96;97865.69;5058253;28;20449;-84
2022/06/12 02:07:01;;;;;;;3.08;2.78;;;17.30;99.90;;;16.27;74.01;97857.41;5064051;28;20410;-84
2022/06/12 02:09:36;;;;;;;4.32;2.78;;;17.30;99.90;;;16.24;73.96;97854.47;5062850;28;21294;-84
2022/06/12 02:15:00;;;;;;;6.00;3.30;;;17.20;99.90;;;16.16;74.65;97865.78;5091406;28;20393;-84
2022/06/12 02:17:33;;;;;;;5.30;3.20;;;17.20;99.90;;;16.16;74.27;97857.75;5083050;28;20448;-84
2022/06/12 02:20:04;;;;;;;3.28;2.67;;;17.20;99.90;;;16.13;74.25;97860.97;5080309;28;20400;-85
2022/06/12 02:22:32;;;;;;;3.27;2.80;;;17.20;99.90;;;16.09;74.73;97860.69;5070854;28;20498;-84
2022/06/12 02:25:03;;;;;;;5.93;3.25;;;17.10;99.90;;;16.07;75.25;97867.41;5052609;28;20482;-84
2022/06/12 02:27:35;;;;;;;4.57;3.20;;;17.10;99.90;;;16.09;74.56;97866.03;5070339;28;20422;-84
2022/06/12 02:30:11;;;;;;;4.63;3.03;;;17.20;99.90;;;16.03;74.75;97866.34;5078611;28;20469;-84
2022/06/12 02:32:44;;;;;;;4.63;3.10;;;17.10;99.90;;;15.99;74.78;97868.78;5082636;28;20530;-84
2022/06/12 02:35:17;;;;;;;6.00;2.83;;;17.00;99.90;;;15.96;75.17;97873.84;5089411;28;20391;-84
2022/06/12 02:37:47;;;;;;;6.40;3.20;;;17.00;99.90;;;15.93;75.42;97875.22;5082029;28;20469;-84
2022/06/12 02:40:19;;;;;;;6.53;3.13;;;17.00;99.90;;;15.91;75.51;97874.69;5083603;28;20458;-83
2022/06/12 02:42:49;;;;;;;4.03;2.97;;;17.00;99.90;;;15.88;75.36;97875.22;5064287;28;20410;-83
2022/06/12 02:45:23;;;;;;;4.32;2.90;;;16.90;99.90;;;15.85;75.46;97871.25;5072513;28;20901;-83
2022/06/12 02:47:51;;;;;;;5.27;2.73;;;16.90;99.90;;;15.83;75.51;97872.56;5090687;28;20447;-84
2022/06/12 02:50:22;;;;;;;6.93;3.25;;;16.90;99.90;;;15.84;75.19;97871.50;5089701;28;20429;-84
2022/06/12 02:52:56;;;;;;;4.68;3.10;;;16.90;99.90;;;15.81;74.96;97872.84;5085415;28;20399;-83
2022/06/12 02:55:44;;;;;;;5.32;3.25;;;16.90;99.90;;;15.75;75.27;97876.59;5082334;28;20440;-83
2022/06/12 02:58:20;;;;;;;4.63;2.97;;;16.80;99.90;;;15.70;75.73;97867.81;5092526;28;21298;-83
2022/06/12 03:00:52;;;;;;;7.87;3.03;;;16.70;99.90;;;15.65;75.77;97870.50;5094139;28;20413;-83
2022/06/12 03:03:26;;;;;;;4.57;2.88;;;16.70;99.90;;;15.65;75.86;97865.16;5094917;28;20906;-82
2022/06/12 03:05:57;;;;;;;3.67;2.63;;;16.70;99.90;;;15.63;75.58;97864.66;5094582;28;20516;-82
2022/06/12 03:08:28;;;;;;;6.15;2.97;;;16.70;99.90;;;15.61;75.76;97869.44;5094344;28;20422;-83
2022/06/12 03:10:58;;;;;;;4.50;2.95;;;16.70;99.90;;;15.59;75.75;97872.38;5076208;28;20855;-82
2022/06/12 03:13:26;;;;;;;5.53;2.92;;;16.70;99.90;;;15.56;75.72;97858.78;5095191;28;20497;-82
2022/06/12 03:15:58;;;;;;;6.30;3.08;;;16.60;99.90;;;15.52;75.74;97869.16;5092325;28;20799;-82
2022/06/12 03:18:29;;;;;;;3.88;2.83;;;16.60;99.90;;;15.49;75.84;97869.69;5088721;28;20763;-82
2022/06/12 03:21:11;;;;;;;5.95;2.85;;;16.60;99.90;;;15.47;75.67;97869.19;5083591;28;20404;-81
2022/06/12 03:24:03;;;;;;;4.85;3.33;;;16.50;99.90;;;15.43;76.12;97874.25;5081047;28;20405;-81
2022/06/12 03:26:41;;;;;;;3.15;2.85;;;16.50;99.90;;;15.39;76.35;97873.19;5080895;28;20402;-81
2022/06/12 03:29:18;;;;;;;4.65;2.92;;;16.40;99.90;;;15.37;76.62;97871.88;5092654;28;20429;-81
2022/06/12 03:31:55;;;;;;;5.00;3.17;;;16.40;99.90;;;15.37;76.67;97877.19;5085799;28;20512;-81
2022/06/12 03:34:33;;;;;;;5.05;3.17;;;;;;;15.34;76.70;97873.19;5094120;28;20390;-81
2022/06/12 03:37:06;;;;;;;4.60;3.25;;;16.40;99.90;;;15.33;76.95;97868.16;5093763;28;20432;-81
2022/06/12 03:39:43;;;;;;;4.38;3.33;;;16.40;99.90;;;15.34;76.82;97875.06;5092953;28;20401;-81
2022/06/12 03:42:18;;;;;;;4.55;2.80;;;16.40;99.90;;;15.31;77.10;97868.41;5093335;28;20420;-81
2022/06/12 03:44:55;;;;;;;5.35;3.42;;;16.40;99.90;;;15.30;76.93;97872.16;5085295;28;20396;-81
2022/06/12 03:47:30;;;;;;;5.93;3.28;;;16.40;99.90;;;15.28;77.37;97874.28;5074221;28;20419;-81
2022/06/12 03:50:04;;;;;;;6.22;4.20;;;16.40;99.90;;;15.30;77.60;97874.81;5072476;28;20419;-81
2022/06/12 03:52:37;;;;;;;4.77;3.30;;;16.30;99.90;;;15.31;77.75;97879.09;5073153;28;20411;-81
2022/06/12 03:55:10;;;;;;;5.30;3.65;;;16.40;99.90;;;15.34;77.53;97880.41;5074181;28;20399;-82
2022/06/12 03:57:52;;;;;;;5.68;3.65;;;16.40;99.90;;;15.36;77.87;97878.25;5073217;28;20431;-82
2022/06/12 04:00:26;;;;;;;6.03;3.88;;;16.40;99.90;;;15.36;77.71;97881.72;5072331;28;20404;-80
2022/06/12 04:03:03;;;;;;;5.30;3.70;;;16.40;99.90;;;15.37;77.70;97882.53;5073097;28;20391;-80
2022/06/12 04:05:36;;;;;;;5.45;3.72;;;16.40;99.90;;;15.39;77.68;97878.53;5078270;28;20429;-80
2022/06/12 04:08:06;;;;;;;5.03;3.42;;;16.40;99.90;;;15.41;77.70;97880.94;5082317;28;20415;-80
2022/06/12 04:10:36;;;;;;;7.22;3.55;;;16.40;99.90;;;15.41;77.82;97865.72;5081955;28;20414;-80
2022/06/12 04:13:05;;;;;;;4.25;3.28;;;16.40;99.90;;;15.43;77.50;97874.25;5091470;28;20398;-80
2022/06/12 04:15:38;;;;;;;5.07;3.22;;;16.50;99.90;;;15.46;77.34;97876.38;5093050;28;20401;-80
2022/06/12 04:18:05;;;;;;;5.57;3.13;;;16.50;99.90;;;15.49;77.69;97881.16;5083196;28;20454;-81
2022/06/12 04:20:48;;;;;;;4.68;3.25;;;16.50;99.90;;;15.53;77.73;97872.63;5086642;28;20451;-80
2022/06/12 04:23:22;;;;;;;3.83;3.03;;;16.60;99.90;;;15.56;77.47;97880.94;5092746;28;20441;-80
2022/06/12 04:25:53;;;;;;;3.30;3.00;;;16.60;99.90;;;15.62;77.63;97877.19;5092360;28;20492;-80
2022/06/12 04:28:30;;;;;;;5.25;3.10;;;16.60;99.90;;;15.68;77.70;97875.28;5091932;28;20409;-80
2022/06/12 04:30:57;;;;;;;4.60;3.42;;;16.70;99.90;;;15.74;77.70;97876.88;5069231;28;20415;-81
2022/06/12 04:33:56;;;;;;;5.40;2.80;;;16.70;99.90;;;15.79;77.55;97877.66;5084025;28;20398;-81
2022/06/12 04:36:24;;;;;;;6.45;3.58;;;16.80;99.90;;;15.84;77.77;97872.31;5092323;28;20398;-82
2022/06/12 04:38:53;;;;;;;4.88;3.03;;;16.80;99.90;;;15.88;77.53;97877.88;5091625;28;20482;-81
2022/06/12 04:41:24;;;;;;;5.90;3.15;;;16.80;99.90;;;15.92;77.59;97870.94;5092207;28;20398;-79
2022/06/12 04:43:50;;;;;;;3.87;2.93;;;16.90;99.90;;;15.97;77.74;97876.25;5092577;28;20406;-81
2022/06/12 04:46:16;;;;;;;4.95;3.47;;;16.90;99.90;;;16.02;77.74;97876.22;5091985;28;20402;-76
2022/06/12 04:48:45;;;;;;;4.38;3.20;;;;;;;16.08;77.59;97882.38;5091350;28;20410;-76
2022/06/12 04:51:12;;;;;;;4.50;3.22;;;;;;;16.14;77.67;97881.25;5086818;28;20410;-76
2022/06/12 04:53:43;;;;;;;3.20;2.72;;;;;;;16.20;77.81;97885.50;5076996;28;20472;-76
2022/06/12 04:56:10;;;;;;;6.07;3.22;;;;;;;16.27;78.30;97881.47;5087867;28;20415;-76
2022/06/12 04:58:38;;;;;;;5.60;2.90;;;;;;;16.35;78.69;97880.09;5078492;28;20407;-81
2022/06/12 05:01:05;;;;;;;5.20;3.10;;;;;;;16.43;78.74;97881.38;5083439;28;20913;-79
2022/06/12 05:03:31;;;;;;;3.88;2.97;;;;;;;16.51;79.04;97888.81;5091794;28;20400;-80
2022/06/12 05:05:58;;;;;;;5.28;3.63;;;;;;;16.59;79.04;97888.22;5091671;28;20459;-80
2022/06/12 05:08:24;;;;;;;3.85;2.70;;;;;;;16.67;79.40;97886.88;5091092;28;20414;-81
2022/06/12 05:10:53;;;;;;;5.22;3.30;;;;;;;16.73;79.56;97891.91;5073027;28;20787;-81
2022/06/12 05:13:19;;;;;;;3.38;3.05;;;;;;;16.81;79.88;97890.50;5091680;28;20394;-81
2022/06/12 05:15:46;;;;;;;4.35;3.67;;;;;;;16.87;80.22;97887.53;5091140;28;20455;-81
2022/06/12 05:18:15;;;;;;;5.30;3.35;;;;;;;16.94;79.73;97889.88;5082422;28;20405;-81
2022/06/12 05:20:42;;;;;;;4.38;3.03;;;;;;;16.99;79.71;97887.16;5089932;28;20397;-81
2022/06/12 05:23:09;;;;;;;5.53;3.17;;;;;;;17.05;79.55;97891.41;5089716;28;20416;-76
2022/06/12 05:25:36;;;;;;;4.18;3.40;;;;;;;17.11;79.77;97897.50;5060764;28;20404;-76
2022/06/12 05:28:05;;;;;;;5.53;3.17;;;;;;;17.16;79.86;97890.22;5075857;28;20411;-76
2022/06/12 05:30:34;;;;;;;5.18;3.35;;;;;;;17.23;80.07;97906.75;5083230;22;20911;-76
2022/06/12 05:33:02;;;;;;;5.95;3.47;;;;;;;17.28;79.70;97898.69;5086125;28;20455;-76
2022/06/12 05:35:30;;;;;;;3.92;3.25;;;;;;;17.33;79.40;97890.63;5088981;28;20398;-75
2022/06/12 05:38:00;;;;;;;7.23;4.10;;;;;;;17.38;79.44;97892.44;5075972;28;20746;-76
2022/06/12 05:40:31;;;;;;;5.68;4.00;;;;;;;17.41;79.26;97890.00;5072515;28;20405;-75
2022/06/12 05:42:57;;;;;;;7.65;4.07;;;;;;;17.46;79.27;97899.84;5057069;28;20409;-76
2022/06/12 05:45:27;;;;;;;5.95;4.15;;;;;;;17.49;79.24;97893.16;5064218;28;20400;-75
2022/06/12 05:47:56;;;;;;;7.30;4.00;;;;;;;17.51;78.81;97889.13;5058395;28;20986;-75
2022/06/12 05:50:26;;;;;;;4.97;3.80;;;;;;;17.54;78.95;97891.22;5065229;28;20411;-77
2022/06/12 05:52:53;;;;;;;6.63;3.92;;;;;;;17.59;79.00;97891.16;5057163;28;20439;-77
2022/06/12 05:55:19;;;;;;;5.95;3.80;;;;;;;17.62;79.02;97890.63;5066898;28;20764;-75
2022/06/12 05:57:46;;;;;;;4.53;3.42;;;;;;;17.66;79.19;97886.31;5059817;28;20419;-77
2022/06/12 06:00:16;;;;;;;5.05;3.50;;;;;;;17.72;78.59;97889.72;5064366;28;20418;-76
2022/06/12 06:02:44;;;;;;;4.85;3.42;;;;;;;17.77;78.57;97897.69;5061343;28;20454;-75
2022/06/12 06:05:12;;;;;;;5.05;3.67;;;;;;;17.82;78.25;97886.16;5062199;28;20443;-74
2022/06/12 06:07:39;;;;;;;5.78;3.65;;;;;;;17.87;78.47;97896.78;5066220;28;20411;-73
2022/06/12 06:10:11;;;;;;;5.82;3.95;;;;;;;17.93;78.37;97891.09;5062590;28;20402;-74
2022/06/12 06:12:38;;;;;;;4.88;3.83;;;;;;;17.98;78.33;97895.56;5059493;28;20415;-76
2022/06/12 06:15:05;;;;;;;6.18;4.10;;;;;;;18.05;78.08;97898.69;5050043;28;20411;-77
2022/06/12 06:17:31;;;;;;;5.82;4.25;;;;;;;18.10;77.98;97904.03;5067917;28;20869;-77
2022/06/12 06:19:59;;;;;;;5.82;3.80;;;;;;;18.15;77.97;97896.72;5064585;28;20800;-78
2022/06/12 06:22:25;;;;;;;5.95;3.75;;;;;;;18.23;77.54;97900.63;5068589;28;20453;-78
2022/06/12 06:24:51;;;;;;;5.18;3.50;;;;;;;18.29;77.51;97896.78;5068145;28;20413;-76
2022/06/12 06:27:17;;;;;;;5.40;3.60;;;;;;;18.35;77.56;97898.31;5066517;28;20404;-76
2022/06/12 06:29:44;;;;;;;5.53;3.50;;;;;;;18.41;77.32;97899.06;5056664;28;20411;-75
2022/06/12 06:32:11;;;;;;;4.80;3.33;;;;;;;18.45;77.38;97900.06;5061284;28;20815;-74
2022/06/12 06:34:40;;;;;;;5.43;3.57;;;;;;;18.49;77.09;97907.22;5062468;28;20537;-75
2022/06/12 06:37:10;;;;;;;5.18;3.13;;;;;;;18.54;77.06;97898.34;5059048;28;20465;-77
2022/06/12 06:39:38;;;;;;;5.25;3.13;;;;;;;18.57;76.96;97903.13;5063296;28;20804;-76
2022/06/12 06:42:06;;;;;;;6.38;3.03;;;;;;;18.62;76.77;97905.78;5059392;28;20412;-78
2022/06/12 06:47:17;;;;;;;5.35;3.33;;;;;;;18.70;76.50;97904.31;5065277;28;20397;-77
2022/06/12 06:49:43;;;;;;;5.70;3.20;;;;;;;18.73;76.16;97904.53;5056456;28;21010;-73
2022/06/12 06:52:11;;;;;;;6.28;2.97;;;;;;;18.78;75.79;97900.97;5068942;28;20475;-75
2022/06/12 06:54:38;;;;;;;4.28;2.75;;;;;;;18.82;75.57;97910.03;5068241;28;20788;-76
2022/06/12 06:57:05;;;;;;;6.60;3.17;;;;;;;18.85;75.64;97906.78;5068148;28;20414;-75
2022/06/12 06:59:32;;;;;;;4.22;2.75;;;;;;;18.90;74.29;97917.41;5061908;28;20397;-75
2022/06/12 07:01:58;;;;;;;4.07;2.88;;;;;;;18.94;74.28;97905.81;5067480;28;20406;-74
2022/06/12 07:04:25;;;;;;;5.22;2.45;;;;;;;19.00;74.43;97903.06;5069560;28;20462;-76
2022/06/12 07:06:51;;;;;;;4.13;2.35;;;;;;;19.04;72.90;97909.44;5069660;28;20423;-75
2022/06/12 07:09:19;;;;;;;4.68;2.42;;;;;;;19.08;71.24;97905.88;5050630;28;20412;-76
2022/06/12 07:11:45;;;;;;;2.97;2.10;;;;;;;19.17;70.72;97919.44;5068647;28;20400;-74
2022/06/12 07:14:11;;;;;;;3.80;2.30;;;19.90;99.90;;;19.23;71.01;97919.06;5068429;28;20412;-75
2022/06/12 07:16:40;;;;;;;2.92;2.17;;;20.00;99.90;;;19.29;71.19;97917.88;5069271;28;20935;-77
2022/06/12 07:19:07;;;;;;;7.50;2.83;;;20.00;99.90;;;19.34;70.73;97916.97;5068233;28;20403;-75
2022/06/12 07:21:33;;;;;;;3.65;2.10;;;20.10;99.90;;;19.39;70.89;97914.22;5068491;28;20396;-75
2022/06/12 07:23:59;;;;;;;3.47;2.30;;;20.10;99.90;;;19.43;70.84;97917.09;5068998;28;20408;-75
2022/06/12 07:26:32;;;;;;;4.28;2.47;;;20.20;99.90;;;19.46;70.93;97908.47;5069338;28;20457;-76
2022/06/12 07:28:58;;;;;;;5.25;2.55;;;20.20;99.90;;;19.50;71.01;97914.84;5066697;28;20416;-74
2022/06/12 07:31:24;;;;;;;4.65;2.58;;;20.20;99.90;;;19.53;70.23;97901.66;5064575;28;20445;-74
2022/06/12 07:33:51;;;;;;;6.50;2.53;;;20.30;99.90;;;19.60;70.05;97899.38;5061921;28;20954;-73
2022/06/12 07:36:18;;;;;;;5.32;2.50;;;20.30;99.90;;;19.67;70.03;97904.34;5062142;28;20401;-74
2022/06/12 07:38:47;;;;;;;3.57;2.50;;;20.40;99.90;;;19.74;69.97;97899.38;5048616;28;20444;-75
2022/06/12 07:41:15;;;;;;;5.05;2.38;;;20.50;99.90;;;19.80;69.91;97903.56;5048875;28;20830;-76
2022/06/12 07:43:44;;;;;;;3.50;2.40;;;20.50;99.90;;;19.85;70.15;97897.28;5050795;28;20967;-74
2022/06/12 07:46:15;;;;;;;3.10;2.30;;;20.60;99.90;;;19.89;69.97;97900.97;5052814;28;20448;-75
2022/06/12 07:48:43;;;;;;;4.60;2.40;;;20.60;99.90;;;19.93;69.39;97896.59;5052150;28;20420;-73
2022/06/12 07:51:16;;;;;;;4.88;2.40;;;20.70;99.90;;;20.00;69.12;97891.59;5052263;28;20457;-74
2022/06/12 07:53:42;;;;;;;4.38;2.40;;;20.70;99.90;;;20.06;68.90;97885.06;5052766;28;20408;-74
2022/06/12 07:56:10;;;;;;;3.38;2.58;;;20.70;99.90;;;20.13;69.12;97892.72;5052809;28;20476;-73
2022/06/12 07:58:36;;;;;;;3.40;2.40;;;20.80;99.90;;;20.17;69.02;97894.50;5052217;28;20401;-73
2022/06/12 08:01:07;;;;;;;3.95;2.40;;;20.90;99.90;;;20.23;68.75;97887.09;5052527;28;20402;-74
2022/06/12 08:03:34;;;;;;;4.07;2.38;;;20.90;99.90;;;20.30;68.60;97882.91;5067303;28;20542;-73
2022/06/12 08:06:01;;;;;;;3.65;2.40;;;21.00;99.90;;;20.36;68.60;97884.44;5069332;28;20399;-72
2022/06/12 08:08:28;;;;;;;5.82;2.40;;;21.10;99.90;;;20.44;68.88;97888.31;5070071;28;20776;-74
2022/06/12 08:10:55;;;;;;;3.92;2.20;;;21.10;99.90;;;20.54;68.82;97887.28;5064428;28;20453;-73
2022/06/12 08:13:23;;;;;;;3.20;2.35;;;21.20;99.90;;;20.62;68.24;97884.66;5069343;28;20407;-73
2022/06/12 08:15:51;;;;;;;3.60;2.30;;;21.30;99.90;;;20.71;67.76;97888.25;5067572;28;20902;-73
2022/06/12 08:18:20;;;;;;;5.13;2.38;;;21.40;99.90;;;20.80;67.60;97883.72;5063298;28;20403;-73
2022/06/12 08:20:50;;;;;;;6.53;2.40;;;21.50;99.90;;;20.89;66.58;97888.38;5071309;28;20502;-73
2022/06/12 08:23:26;;;;;;;2.97;2.20;;;21.60;99.90;;;20.98;66.65;97881.94;5062897;28;20514;-72
2022/06/12 08:25:55;;;;;;;3.60;2.15;;;21.70;99.90;;;21.05;66.50;97887.69;5071813;28;20881;-73
2022/06/12 08:28:25;;;;;;;3.67;2.40;;;21.70;99.90;;;21.10;66.21;97882.19;5070820;28;20540;-73
2022/06/12 08:30:51;;;;;;;4.35;2.20;;;21.80;99.90;;;21.15;64.84;97884.75;5071126;28;20400;-72
2022/06/12 08:33:19;;;;;;;3.42;1.98;;;21.80;99.90;;;21.20;63.09;97881.19;5061246;28;20396;-72
2022/06/12 08:35:45;;;;;;;3.33;2.10;;;21.90;99.90;;;21.31;63.67;97879.03;5051816;28;20442;-74
2022/06/12 08:38:12;;;;;;;6.50;2.38;;;21.90;99.90;;;21.37;62.87;97883.97;5051452;28;20817;-74
2022/06/12 08:40:46;;;;;;;4.85;2.53;;;22.00;99.90;;;21.43;61.84;97880.03;5051582;28;20401;-73
2022/06/12 08:43:23;;;;;;;5.63;2.67;;;22.10;99.90;;;21.50;60.84;97871.53;5051806;28;20405;-73
2022/06/12 08:45:51;;;;;;;5.77;2.43;;;22.20;99.90;;;21.58;59.95;97876.13;5051795;28;20398;-70
2022/06/12 08:48:30;;;;;;;3.72;2.10;;;22.20;99.90;;;21.71;60.90;97875.28;5051169;28;20436;-70
2022/06/12 08:51:04;;;;;;;4.60;2.50;;;22.30;99.90;;;21.84;61.42;97874.38;5051374;28;20480;-72
2022/06/12 08:53:38;;;;;;;2.47;2.10;;;22.50;99.90;;;21.93;60.73;97874.41;5050303;28;20433;-73
2022/06/12 08:56:12;;;;;;;3.37;2.10;;;22.50;99.90;;;22.01;61.06;97870.97;5061144;28;20400;-74
2022/06/12 08:58:44;;;;;;;4.22;2.13;;;22.60;99.90;;;22.10;61.52;97868.28;5067504;28;20399;-74
2022/06/12 09:01:13;;;;;;;8.50;2.58;;;22.70;99.90;;;22.16;61.36;97867.81;5068038;28;20819;-74
2022/06/12 09:03:46;;;;;;;5.17;2.67;;;22.80;99.90;;;22.25;61.16;97867.84;5051887;28;20400;-74
2022/06/12 09:06:26;;;;;;;3.92;2.20;;;22.80;99.90;;;22.32;60.42;97868.97;5067109;28;20432;-78
2022/06/12 09:08:59;;;;;;;3.47;2.10;;;22.90;99.90;;;22.36;59.50;97864.53;5065689;28;20454;-75
2022/06/12 09:11:33;;;;;;;3.67;2.00;;;23.00;99.90;;;22.46;59.69;97859.94;5070225;28;20647;-75
2022/06/12 09:14:09;;;;;;;4.72;2.28;;;23.10;99.90;;;22.58;58.61;97855.50;5063970;28;20400;-75
2022/06/12 09:16:48;;;;;;;4.23;2.27;;;23.20;99.60;;;22.67;59.53;97855.50;5048440;28;20407;-74
2022/06/12 09:19:26;;;;;;;5.53;2.60;;;23.30;99.90;;;22.73;58.40;97851.53;5069394;28;20721;-74
2022/06/12 09:22:04;;;;;;;4.80;2.20;;;23.30;98.70;;;22.77;56.66;97847.91;5065273;28;20407;-75
2022/06/12 09:24:45;;;;;;;5.30;2.20;;;23.40;97.40;;;22.76;53.38;97851.72;5066676;28;20929;-75
2022/06/12 09:27:23;;;;;;;6.93;2.10;;;23.40;94.70;;;22.81;53.21;97849.97;5061579;28;20425;-74
2022/06/12 09:29:58;;;;;;;2.63;2.05;;;23.40;94.30;;;22.92;54.81;97849.31;5060119;28;20425;-73
2022/06/12 09:32:37;;;;;;;4.10;2.28;;;23.50;95.50;;;23.00;55.53;97853.13;5063424;28;20503;-75
2022/06/12 09:35:26;;;;;;;4.20;2.22;;;23.50;95.70;;;23.11;55.21;97843.56;5064171;28;20403;-74
2022/06/12 09:38:21;;;;;;;5.05;2.20;;;23.70;95.50;;;23.25;55.24;97848.78;5066575;28;20885;-74
2022/06/12 09:41:09;;;;;;;5.80;2.85;;;23.80;95.70;;;23.30;51.93;97849.41;5070270;28;20403;-75
2022/06/12 09:43:43;;;;;;;3.28;2.30;;;23.90;93.40;;;23.33;51.18;97843.34;5052735;28;20404;-75
2022/06/12 09:46:25;;;;;;;4.55;2.20;;;23.90;92.80;;;23.41;53.00;97837.13;5070306;28;20922;-74
2022/06/12 09:49:02;;;;;;;5.50;2.55;;;24.00;93.80;;;23.54;54.31;97836.16;5069839;28;20423;-74
2022/06/12 09:51:48;;;;;;;4.70;2.28;;;24.10;94.80;;;23.70;53.81;97836.41;5070238;28;20404;-74
2022/06/12 09:54:36;;;;;;;5.35;2.08;;;24.20;94.40;;;23.94;52.97;97833.09;5069721;28;20846;-74
2022/06/12 09:57:10;;;;;;;5.53;2.10;;;24.40;94.00;;;24.17;52.15;97822.78;5070529;28;20514;-75
2022/06/12 09:59:44;;;;;;;3.15;2.15;;;24.70;93.30;;;24.44;51.82;97818.78;5069565;28;20392;-74
2022/06/12 10:02:19;;;;;;;6.70;2.40;;;24.90;93.00;;;24.58;48.24;97820.09;5069938;28;20498;-75
2022/06/12 10:04:54;;;;;;;3.60;1.98;;;25.10;90.90;;;24.80;48.84;97816.25;5070224;28;20391;-74
2022/06/12 10:07:28;;;;;;;5.20;2.20;;;25.30;91.10;;;24.92;48.55;97804.69;5069908;28;20399;-74
2022/06/12 10:10:00;;;;;;;3.10;2.00;;;25.30;66.30;;;25.12;49.67;97813.88;5069535;28;20473;-74
2022/06/12 10:12:32;;;;;;;4.95;2.10;;;25.40;66.80;;;25.28;48.11;97812.91;5068780;28;20415;-74
2022/06/12 10:15:05;;;;;;;4.30;2.00;;;25.60;64.90;;;25.34;49.32;97814.28;5070074;28;20411;-73
2022/06/12 10:17:38;;;;;;;3.28;1.98;;;25.70;66.30;;;25.22;50.15;97813.47;5069917;28;20473;-74
2022/06/12 10:20:10;;;;;;;4.82;1.90;;;25.60;67.30;;;24.93;48.73;97807.09;5069303;28;20400;-73
2022/06/12 10:22:43;;;;;;;4.05;2.13;;;25.30;65.10;;;24.66;49.30;97808.41;5070170;28;20448;-74
2022/06/12 10:25:18;;;;;;;3.03;1.90;;;25.10;66.00;;;24.55;49.84;97809.16;5069954;28;20399;-73
2022/06/12 10:27:48;;;;;;;2.55;1.73;;;24.90;66.80;;;24.58;50.33;97811.22;5069888;28;20400;-74
2022/06/12 10:30:29;;;;;;;5.40;2.20;;;24.90;67.70;;;24.50;48.32;97803.94;5068750;28;20414;-74
2022/06/12 10:32:57;;;;;;;2.88;1.77;;;24.90;63.90;;;24.50;48.72;97803.94;5069585;28;20400;-74
2022/06/12 10:35:26;;;;;;;3.13;1.83;;;24.90;65.10;;;24.55;50.56;97806.44;5069869;28;20403;-73
2022/06/12 10:38:05;;;;;;;3.22;1.88;;;24.90;67.30;;;24.51;50.41;97805.53;5069921;28;20873;-74
2022/06/12 10:40:31;;;;;;;4.28;1.95;;;24.90;67.10;;;25.00;50.42;97803.81;5069483;28;20907;-74
2022/06/12 10:43:02;;;;;;;3.42;1.95;;;;;;;26.49;47.95;97803.97;5069886;28;20396;-74
2022/06/12 10:45:31;;;;;;;5.07;1.83;;;;;;;28.35;43.02;97799.31;5069718;28;20469;-74
2022/06/12 10:48:02;;;;;;;4.70;2.20;;;;;;;29.54;36.63;97794.63;5069855;28;20514;-74
2022/06/12 10:50:31;;;;;;;6.47;1.90;;;;;;;30.43;34.56;97795.16;5069211;28;20392;-74
2022/06/12 10:53:03;;;;;;;4.63;1.60;;;;;;;31.58;34.17;97788.56;5069754;28;20392;-75
2022/06/12 10:55:50;;;;;;;6.18;1.70;;;;;;;32.77;30.25;97786.19;5069572;28;20400;-75
2022/06/12 10:58:52;;;;;;;5.57;1.65;;;;;;;33.96;28.49;97784.75;5069088;28;20388;-75
2022/06/12 11:01:27;;;;;;;2.97;1.37;;;;;;;35.40;28.47;97773.50;5069456;28;20927;-75
2022/06/12 11:04:03;;;;;;;3.17;1.50;;;;;;;36.55;26.56;97768.41;5069529;28;20403;-75
2022/06/12 11:06:36;;;;;;;4.28;1.35;;;;;;;37.43;24.10;97767.19;5069469;28;20429;-75